Time;durP1;ratioP1;P1;durP2;ratioP2;P2;SDS_P1;SDS_P2;PMS_P1;PMS_P2;Temp;Humidity;BMP_temperature;BMP_pressure;BME280_temperature;BME280_humidity;BME280_pressure;Samples;Min_cycle;Max_cycle;Signal;HPM_P1;HPM_P2
2023/10/24 00:00:16;;;;;;;2.70;1.97;;;;;;;;;;5026410;28;20459;-67
2023/10/24 00:02:43;;;;;;;4.73;2.30;;;;;;;;;;5029401;28;20537;-66
2023/10/24 00:05:12;;;;;;;3.97;2.50;;;;;;;;;;5025952;28;20475;-67
2023/10/24 00:07:39;;;;;;;5.50;1.90;;;;;;;;;;5028391;28;20471;-67
2023/10/24 00:10:06;;;;;;;3.33;1.90;;;;;;;;;;5025381;28;20453;-66
2023/10/24 00:12:33;;;;;;;3.00;1.47;;;;;;;;;;5022492;28;20447;-66
2023/10/24 00:15:01;;;;;;;4.40;2.13;;;;;;;;;;5026563;28;20549;-67
2023/10/24 00:17:28;;;;;;;3.53;1.93;;;;;;;;;;5018162;28;20440;-67
2023/10/24 00:19:55;;;;;;;3.43;2.30;;;;;;;;;;5024535;28;20459;-66
2023/10/24 00:22:24;;;;;;;3.20;2.00;;;;;;;;;;5029093;28;20467;-66
2023/10/24 00:24:51;;;;;;;3.50;2.27;;;;;;;;;;5026503;28;20451;-67
2023/10/24 00:27:18;;;;;;;3.50;2.17;;;;;;;;;;5019775;28;20451;-66
2023/10/24 00:29:45;;;;;;;4.13;2.00;;;;;;;;;;5020770;28;20466;-66
2023/10/24 00:32:12;;;;;;;8.13;1.90;;;;;;;;;;5018450;28;20454;-66
2023/10/24 00:34:39;;;;;;;6.07;2.20;;;;;;;;;;5027227;28;20466;-66
2023/10/24 00:37:08;;;;;;;4.27;2.13;;;;;;;;;;5030990;28;20524;-66
2023/10/24 00:39:37;;;;;;;2.90;1.97;;;;;;;;;;5028475;28;20447;-67
2023/10/24 00:42:05;;;;;;;2.70;1.70;;;;;;;;;;5026451;28;20466;-69
2023/10/24 00:44:32;;;;;;;4.87;2.83;;;;;;;;;;5027034;28;20839;-67
2023/10/24 00:47:00;;;;;;;2.33;1.50;;;;;;;;;;5029874;28;20549;-67
2023/10/24 00:49:27;;;;;;;4.53;2.27;;;;;;;;;;5025423;28;20553;-67
2023/10/24 00:51:56;;;;;;;4.30;2.23;;;;;;;;;;5029797;28;20466;-67
2023/10/24 00:54:23;;;;;;;3.73;2.23;;;;;;;;;;5028799;28;20965;-67
2023/10/24 00:56:52;;;;;;;6.60;3.37;;;;;;;;;;5030099;28;20468;-65
2023/10/24 00:59:20;;;;;;;3.37;1.90;;;;;;;;;;5028899;28;20569;-64
2023/10/24 01:01:47;;;;;;;3.50;2.03;;;;;;;;;;5025512;28;20470;-64
2023/10/24 01:04:14;;;;;;;3.47;2.47;;;;;;;;;;5029572;28;20455;-65
2023/10/24 01:06:41;;;;;;;3.30;2.23;;;;;;;;;;5062117;23;20484;-65
2023/10/24 01:09:08;;;;;;;5.37;2.40;;;;;;;;;;5019412;28;20478;-65
2023/10/24 01:11:35;;;;;;;3.93;1.80;;;;;;;;;;5017168;28;20459;-65
2023/10/24 01:14:04;;;;;;;3.33;2.17;;;;;;;;;;5024322;28;20968;-66
2023/10/24 01:16:34;;;;;;;3.30;2.37;;;;;;;;;;5024390;28;20487;-66
2023/10/24 01:27:53;;;;;;;2.93;1.80;;;;;;;;;;5056950;23;20535;-65
2023/10/24 01:30:21;;;;;;;3.60;1.60;;;;;;;;;;5025723;28;21033;-65
2023/10/24 01:32:48;;;;;;;4.80;2.37;;;;;;;;;;5025417;28;20451;-65
2023/10/24 01:35:15;;;;;;;4.40;2.00;;;;;;;;;;5023746;28;20557;-65
2023/10/24 01:37:44;;;;;;;4.23;2.20;;;;;;;;;;5011495;28;20440;-65
2023/10/24 01:40:12;;;;;;;3.30;1.87;;;;;;;;;;5007068;28;20445;-65
2023/10/24 01:42:39;;;;;;;3.43;1.90;;;;;;;;;;5002800;28;20560;-65
2023/10/24 01:45:10;;;;;;;2.87;1.97;;;;;;;;;;5001795;28;20552;-65
2023/10/24 01:47:37;;;;;;;3.03;1.90;;;;;;;;;;5001583;28;20431;-65
2023/10/24 01:50:05;;;;;;;2.83;1.80;;;;;;;;;;5012828;28;20448;-65
2023/10/24 01:52:33;;;;;;;3.80;1.90;;;;;;;;;;5006968;28;20450;-65
2023/10/24 01:55:00;;;;;;;3.67;2.33;;;;;;;;;;4999733;28;20539;-65
2023/10/24 01:57:27;;;;;;;3.23;1.97;;;;;;;;;;4996458;28;20445;-64
2023/10/24 01:59:55;;;;;;;3.53;1.90;;;;;;;;;;5000280;28;20938;-64
2023/10/24 02:02:26;;;;;;;4.03;2.17;;;;;;;;;;5007142;28;20961;-65
2023/10/24 02:04:53;;;;;;;2.80;1.80;;;;;;;;;;4989082;28;20984;-64
2023/10/24 02:07:20;;;;;;;6.37;2.10;;;;;;;;;;5009182;28;20459;-66
2023/10/24 02:09:47;;;;;;;3.10;1.73;;;;;;;;;;5002162;28;20597;-64
2023/10/24 02:12:14;;;;;;;3.73;1.77;;;;;;;;;;4998382;28;20560;-65
2023/10/24 02:14:41;;;;;;;4.00;2.47;;;;;;;;;;4997378;28;20441;-65
2023/10/24 02:17:08;;;;;;;3.20;1.73;;;;;;;;;;5007197;28;20443;-65
2023/10/24 02:19:39;;;;;;;2.67;1.60;;;;;;;;;;5006910;28;20479;-65
2023/10/24 02:22:06;;;;;;;3.33;2.00;;;;;;;;;;5010471;28;20465;-65
2023/10/24 02:24:33;;;;;;;4.37;2.37;;;;;;;;;;5013376;28;20441;-65
2023/10/24 02:27:00;;;;;;;4.67;2.10;;;;;;;;;;5019606;28;20534;-65
2023/10/24 02:29:27;;;;;;;2.43;1.50;;;;;;;;;;5003869;28;20475;-65
2023/10/24 02:31:54;;;;;;;3.57;1.97;;;;;;;;;;5002787;28;20461;-65
2023/10/24 02:34:21;;;;;;;3.97;1.80;;;;;;;;;;5005836;28;20467;-65
2023/10/24 02:36:49;;;;;;;3.73;1.60;;;;;;;;;;5000788;28;20480;-65
2023/10/24 02:39:16;;;;;;;5.73;1.97;;;;;;;;;;5009500;28;20447;-64
2023/10/24 02:41:43;;;;;;;2.30;1.60;;;;;;;;;;5000952;28;20465;-64
2023/10/24 02:44:10;;;;;;;2.73;1.80;;;;;;;;;;5003223;28;20939;-65
2023/10/24 02:46:37;;;;;;;4.63;2.33;;;;;;;;;;4996049;28;20477;-65
2023/10/24 02:49:04;;;;;;;2.73;1.70;;;;;;;;;;5004432;28;20530;-65
2023/10/24 02:51:32;;;;;;;6.40;2.30;;;;;;;;;;4999969;28;20462;-64
2023/10/24 02:54:00;;;;;;;2.87;1.60;;;;;;;;;;4990897;28;20469;-64
2023/10/24 02:56:28;;;;;;;3.07;1.57;;;;;;;;;;4991000;28;20477;-65
2023/10/24 02:58:55;;;;;;;3.83;1.53;;;;;;;;;;5004735;28;20536;-65
2023/10/24 03:01:22;;;;;;;2.67;1.50;;;;;;;;;;5008542;28;20472;-65
2023/10/24 03:03:49;;;;;;;2.27;1.23;;;;;;;;;;5003417;28;20934;-65
2023/10/24 03:06:16;;;;;;;2.77;1.67;;;;;;;;;;5006269;28;20484;-65
2023/10/24 03:08:43;;;;;;;2.03;1.13;;;;;;;;;;5001514;28;20476;-65
2023/10/24 03:11:13;;;;;;;3.43;2.00;;;;;;;;;;4998700;28;20460;-65
2023/10/24 03:13:40;;;;;;;3.70;1.87;;;;;;;;;;5006145;28;20444;-65
2023/10/24 03:16:07;;;;;;;5.07;2.00;;;;;;;;;;4994978;28;20969;-64
2023/10/24 03:18:35;;;;;;;5.70;1.50;;;;;;;;;;5000181;28;20433;-64
2023/10/24 03:21:06;;;;;;;4.17;2.37;;;;;;;;;;5011624;28;20537;-65
2023/10/24 03:23:33;;;;;;;4.03;1.77;;;;;;;;;;5005084;28;20447;-65
2023/10/24 03:26:00;;;;;;;3.67;2.10;;;;;;;;;;5001080;28;20472;-65
2023/10/24 03:28:31;;;;;;;2.80;1.80;;;;;;;;;;5001472;28;20528;-65
2023/10/24 03:31:03;;;;;;;4.33;1.80;;;;;;;;;;4994214;28;20453;-65
2023/10/24 03:33:30;;;;;;;3.00;2.00;;;;;;;;;;4999678;28;20511;-65
2023/10/24 03:35:58;;;;;;;2.20;1.57;;;;;;;;;;5008065;28;20500;-65
2023/10/24 03:38:27;;;;;;;3.10;2.00;;;;;;;;;;5002384;28;20540;-65
2023/10/24 03:40:54;;;;;;;2.80;1.47;;;;;;;;;;5010613;28;20475;-65
2023/10/24 03:43:22;;;;;;;3.00;2.07;;;;;;;;;;4998888;28;20453;-65
2023/10/24 03:45:50;;;;;;;3.93;2.23;;;;;;;;;;4994240;28;20559;-64
2023/10/24 03:48:18;;;;;;;3.20;2.13;;;;;;;;;;4997813;28;20463;-65
2023/10/24 03:50:45;;;;;;;2.43;1.33;;;;;;;;;;5011314;28;20862;-65
2023/10/24 03:53:12;;;;;;;4.43;1.90;;;;;;;;;;5000748;28;20457;-66
2023/10/24 03:55:39;;;;;;;3.60;2.50;;;;;;;;;;5001024;28;20471;-65
2023/10/24 03:58:06;;;;;;;3.13;1.53;;;;;;;;;;5009312;28;20453;-66
2023/10/24 04:00:33;;;;;;;4.50;1.90;;;;;;;;;;4999217;28;20461;-65
2023/10/24 04:03:02;;;;;;;4.37;2.30;;;;;;;;;;5004232;28;20448;-65
2023/10/24 04:05:32;;;;;;;6.73;2.03;;;;;;;;;;4998423;28;20468;-65
2023/10/24 04:08:00;;;;;;;3.40;1.63;;;;;;;;;;5001638;28;20493;-65
2023/10/24 04:10:27;;;;;;;2.47;1.70;;;;;;;;;;5002379;28;20480;-66
2023/10/24 04:12:55;;;;;;;2.53;1.50;;;;;;;;;;4998285;28;20453;-65
2023/10/24 04:15:23;;;;;;;3.33;1.57;;;;;;;;;;4997219;28;20471;-65
2023/10/24 04:17:51;;;;;;;2.20;1.27;;;;;;;;;;5001149;28;20578;-66
2023/10/24 04:20:19;;;;;;;3.27;2.07;;;;;;;;;;5011557;28;20447;-65
2023/10/24 04:22:48;;;;;;;4.00;1.83;;;;;;;;;;5002862;28;20471;-65
2023/10/24 04:25:15;;;;;;;3.40;1.60;;;;;;;;;;4991662;28;20463;-65
2023/10/24 04:27:42;;;;;;;2.57;1.33;;;;;;;;;;4994223;28;20950;-65
2023/10/24 04:30:10;;;;;;;2.10;1.40;;;;;;;;;;5002542;28;20483;-65
2023/10/24 04:32:37;;;;;;;3.47;1.80;;;;;;;;;;5000193;28;20452;-66
2023/10/24 04:35:05;;;;;;;2.23;1.20;;;;;;;;;;4988906;28;20476;-65
2023/10/24 04:37:34;;;;;;;3.17;1.90;;;;;;;;;;4992221;28;20898;-65
2023/10/24 04:40:01;;;;;;;3.60;0.90;;;;;;;;;;4998472;28;20440;-64
2023/10/24 04:42:28;;;;;;;2.63;1.57;;;;;;;;;;5005946;28;20449;-64
2023/10/24 04:44:55;;;;;;;3.63;1.80;;;;;;;;;;5000286;28;21187;-66
2023/10/24 04:47:25;;;;;;;3.17;1.93;;;;;;;;;;5006208;28;20472;-66
2023/10/24 04:49:52;;;;;;;2.60;1.57;;;;;;;;;;4999786;28;20483;-65
2023/10/24 04:52:19;;;;;;;2.13;1.43;;;;;;;;;;5010070;28;20524;-66
2023/10/24 04:54:47;;;;;;;3.20;1.40;;;;;;;;;;4990246;28;20469;-65
2023/10/24 04:57:15;;;;;;;4.17;1.90;;;;;;;;;;5004718;28;20440;-65
2023/10/24 04:59:44;;;;;;;2.60;1.47;;;;;;;;;;5000801;28;20535;-65
2023/10/24 05:02:11;;;;;;;2.67;1.73;;;;;;;;;;4983360;28;20961;-65
2023/10/24 05:04:38;;;;;;;3.03;1.70;;;;;;;;;;5001915;28;20460;-66
2023/10/24 05:07:06;;;;;;;3.17;1.47;;;;;;;;;;4995444;28;20482;-65
2023/10/24 05:09:33;;;;;;;2.77;1.73;;;;;;;;;;5007701;28;20847;-66
2023/10/24 05:12:01;;;;;;;3.17;2.00;;;;;;;;;;5007857;28;20453;-66
2023/10/24 05:14:28;;;;;;;3.17;1.73;;;;;;;;;;4997714;28;20584;-65
2023/10/24 05:16:55;;;;;;;4.40;1.43;;;;;;;;;;4995716;28;20475;-65
2023/10/24 05:19:22;;;;;;;3.80;2.10;;;;;;;;;;4998861;28;20457;-65
2023/10/24 05:21:49;;;;;;;2.80;1.77;;;;;;;;;;5003316;28;20456;-64
2023/10/24 05:24:16;;;;;;;4.20;1.83;;;;;;;;;;4988913;28;20819;-65
2023/10/24 05:26:43;;;;;;;3.90;1.83;;;;;;;;;;5001272;28;20480;-65
2023/10/24 05:29:11;;;;;;;3.43;1.50;;;;;;;;;;5009795;28;20483;-66
2023/10/24 05:31:39;;;;;;;3.90;2.10;;;;;;;;;;4997322;28;20867;-65
2023/10/24 05:34:06;;;;;;;2.93;1.70;;;;;;;;;;4998184;28;20875;-66
2023/10/24 05:36:33;;;;;;;2.53;1.80;;;;;;;;;;5004348;28;20465;-65
2023/10/24 05:39:00;;;;;;;2.63;1.83;;;;;;;;;;4998538;28;21010;-66
2023/10/24 05:41:27;;;;;;;2.47;1.67;;;;;;;;;;5010491;28;20922;-66
2023/10/24 05:43:54;;;;;;;3.83;1.80;;;;;;;;;;5002156;28;20456;-66
2023/10/24 05:46:23;;;;;;;3.70;1.80;;;;;;;;;;5008051;28;21001;-66
2023/10/24 05:48:50;;;;;;;3.60;2.03;;;;;;;;;;4998431;28;20465;-65
2023/10/24 05:51:23;;;;;;;2.80;1.50;;;;;;;;;;5004594;28;20444;-65
2023/10/24 05:53:50;;;;;;;3.90;1.80;;;;;;;;;;4988905;28;20564;-65
2023/10/24 05:56:17;;;;;;;4.67;1.53;;;;;;;;;;4987271;28;20468;-65
2023/10/24 05:58:47;;;;;;;3.90;1.77;;;;;;;;;;4997763;28;20461;-66
2023/10/24 06:01:14;;;;;;;2.90;1.60;;;;;;;;;;4994443;28;20453;-66
2023/10/24 06:03:42;;;;;;;5.50;2.30;;;;;;;;;;4993432;28;20460;-66
2023/10/24 06:06:12;;;;;;;3.20;1.83;;;;;;;;;;4993784;28;20460;-65
2023/10/24 06:08:40;;;;;;;4.40;2.00;;;;;;;;;;5001167;28;20456;-64
2023/10/24 06:11:07;;;;;;;3.33;1.70;;;;;;;;;;5009062;28;20475;-64
2023/10/24 06:13:34;;;;;;;2.60;1.40;;;;;;;;;;5011664;28;20814;-66
2023/10/24 06:16:08;;;;;;;3.43;1.93;;;;;;;;;;5004352;28;20464;-65
2023/10/24 06:18:35;;;;;;;5.10;2.17;;;;;;;;;;5001274;28;21033;-65
2023/10/24 06:21:07;;;;;;;2.67;1.47;;;;;;;;;;4994097;28;20471;-65
2023/10/24 06:23:34;;;;;;;2.80;1.67;;;;;;;;;;5010733;28;20436;-65
2023/10/24 06:26:01;;;;;;;3.10;2.10;;;;;;;;;;5013973;28;20489;-66
2023/10/24 06:28:28;;;;;;;4.37;2.33;;;;;;;;;;5020424;28;20456;-65
2023/10/24 06:30:59;;;;;;;3.03;2.00;;;;;;;;;;5018069;28;20571;-65
2023/10/24 06:33:27;;;;;;;2.73;1.80;;;;;;;;;;4987040;28;20465;-66
2023/10/24 06:35:54;;;;;;;4.03;2.13;;;;;;;;;;5001293;28;20897;-66
2023/10/24 06:38:23;;;;;;;3.97;1.80;;;;;;;;;;4995486;28;20488;-66
2023/10/24 06:40:50;;;;;;;3.83;1.90;;;;;;;;;;4997331;28;20465;-66
2023/10/24 06:43:18;;;;;;;3.90;1.60;;;;;;;;;;5003532;28;20456;-64
2023/10/24 06:45:46;;;;;;;4.67;2.40;;;;;;;;;;5002924;28;20506;-65
2023/10/24 06:48:13;;;;;;;3.57;1.97;;;;;;;;;;4998720;28;20473;-66
2023/10/24 06:50:41;;;;;;;3.80;2.00;;;;;;;;;;4984380;28;20481;-65
2023/10/24 06:53:08;;;;;;;3.67;2.63;;;;;;;;;;5012351;28;20539;-65
2023/10/24 06:55:37;;;;;;;2.97;1.53;;;;;;;;;;5000539;28;20578;-66
2023/10/24 06:58:04;;;;;;;6.73;2.03;;;;;;;;;;4998072;28;20468;-65
2023/10/24 07:00:31;;;;;;;3.80;1.90;;;;;;;;;;4992585;28;20507;-65
2023/10/24 07:02:58;;;;;;;3.17;1.80;;;;;;;;;;5001577;28;20471;-67
2023/10/24 07:05:26;;;;;;;3.90;2.37;;;;;;;;;;5005635;28;21028;-65
2023/10/24 07:07:53;;;;;;;4.93;2.20;;;;;;;;;;5001616;28;20456;-65
2023/10/24 07:10:20;;;;;;;4.50;1.80;;;;;;;;;;5005276;28;20843;-65
2023/10/24 07:12:49;;;;;;;3.80;2.23;;;;;;;;;;5002828;28;20453;-66
2023/10/24 07:15:16;;;;;;;2.47;1.60;;;;;;;;;;5004417;28;20465;-66
2023/10/24 07:17:43;;;;;;;3.83;2.03;;;;;;;;;;5012718;28;20444;-66
2023/10/24 07:20:11;;;;;;;3.10;1.30;;;;;;;;;;4991309;28;20456;-64
2023/10/24 07:22:38;;;;;;;5.53;2.27;;;;;;;;;;5012104;28;20451;-64
2023/10/24 07:25:05;;;;;;;3.73;2.60;;;;;;;;;;4995669;28;20477;-64
2023/10/24 07:27:34;;;;;;;2.90;2.10;;;;;;;;;;5004568;28;20464;-65
2023/10/24 07:30:03;;;;;;;7.73;3.17;;;;;;;;;;4994148;28;20855;-64
2023/10/24 07:32:30;;;;;;;5.40;2.30;;;;;;;;;;5013137;28;20448;-64
2023/10/24 07:34:57;;;;;;;6.03;2.20;;;;;;;;;;5000235;28;20443;-65
2023/10/24 07:37:24;;;;;;;4.73;2.73;;;;;;;;;;5009594;28;20459;-65
2023/10/24 07:39:52;;;;;;;5.30;2.50;;;;;;;;;;4998098;28;20440;-65
2023/10/24 07:42:19;;;;;;;2.60;1.90;;;;;;;;;;5004733;28;20527;-65
2023/10/24 07:44:46;;;;;;;6.13;2.17;;;;;;;;;;4999554;28;20452;-66
2023/10/24 07:47:19;;;;;;;3.60;2.40;;;;;;;;;;5002619;28;20440;-65
2023/10/24 07:49:46;;;;;;;16.50;6.57;;;;;;;;;;4994735;28;20992;-65
2023/10/24 07:52:13;;;;;;;6.73;2.80;;;;;;;;;;5007195;28;20461;-65
2023/10/24 07:54:40;;;;;;;3.73;2.47;;;;;;;;;;4999922;28;20478;-64
2023/10/24 07:57:08;;;;;;;4.53;1.93;;;;;;;;;;5007796;28;20480;-66
2023/10/24 07:59:35;;;;;;;3.27;1.90;;;;;;;;;;5008245;28;20550;-66
2023/10/24 08:02:02;;;;;;;3.70;2.07;;;;;;;;;;5009240;28;20567;-65
2023/10/24 08:04:31;;;;;;;3.30;2.00;;;;;;;;;;4981518;28;20461;-67
2023/10/24 08:06:59;;;;;;;3.23;1.87;;;;;;;;;;4997915;28;20476;-65
2023/10/24 08:09:26;;;;;;;5.20;2.57;;;;;;;;;;5003735;28;20804;-65
2023/10/24 08:11:53;;;;;;;3.80;2.20;;;;;;;;;;5006452;28;20476;-65
2023/10/24 08:14:20;;;;;;;4.80;2.17;;;;;;;;;;4997846;28;20444;-64
2023/10/24 08:16:47;;;;;;;5.10;2.83;;;;;;;;;;5005203;28;20993;-65
2023/10/24 08:19:14;;;;;;;6.10;3.37;;;;;;;;;;5001427;28;20452;-65
2023/10/24 08:21:42;;;;;;;5.60;3.27;;;;;;;;;;4998284;28;20457;-66
2023/10/24 08:24:09;;;;;;;3.87;2.30;;;;;;;;;;5005213;28;20839;-65
2023/10/24 08:26:37;;;;;;;10.00;2.50;;;;;;;;;;5005749;28;20484;-65
2023/10/24 08:29:04;;;;;;;3.67;2.43;;;;;;;;;;5011548;28;20440;-65
2023/10/24 08:31:31;;;;;;;5.13;2.43;;;;;;;;;;5011368;28;20511;-65
2023/10/24 08:33:58;;;;;;;8.83;3.43;;;;;;;;;;5009253;28;20464;-65
2023/10/24 08:36:25;;;;;;;3.90;2.70;;;;;;;;;;4999094;28;20555;-65
2023/10/24 08:38:54;;;;;;;3.53;2.07;;;;;;;;;;5011902;28;20448;-65
2023/10/24 08:41:22;;;;;;;4.47;2.50;;;;;;;;;;5004480;28;20467;-64
2023/10/24 08:43:50;;;;;;;4.17;2.17;;;;;;;;;;5001235;28;20445;-65
2023/10/24 08:46:17;;;;;;;6.70;2.77;;;;;;;;;;4992918;28;20484;-65
2023/10/24 08:48:44;;;;;;;5.77;2.33;;;;;;;;;;5004544;28;20451;-65
2023/10/24 08:51:11;;;;;;;4.73;2.90;;;;;;;;;;5001628;28;20486;-65
2023/10/24 08:53:38;;;;;;;5.70;2.77;;;;;;;;;;5001956;28;20785;-65
2023/10/24 08:56:11;;;;;;;5.43;2.10;;;;;;;;;;4984827;28;20963;-65
2023/10/24 08:58:39;;;;;;;3.03;1.80;;;;;;;;;;4998941;28;20443;-65
2023/10/24 09:01:06;;;;;;;3.90;2.50;;;;;;;;;;4989318;28;20436;-65
2023/10/24 09:03:34;;;;;;;7.10;2.33;;;;;;;;;;5006757;28;20467;-65
2023/10/24 09:06:01;;;;;;;4.77;2.70;;;;;;;;;;4999080;28;20466;-65
2023/10/24 09:08:28;;;;;;;2.90;2.00;;;;;;;;;;5010199;28;20934;-65
2023/10/24 09:10:56;;;;;;;4.60;2.80;;;;;;;;;;4990113;28;20480;-65
2023/10/24 09:13:26;;;;;;;2.90;1.73;;;;;;;;;;4998777;28;20450;-65
2023/10/24 09:16:11;;;;;;;4.33;2.50;;;;;;;;;;4998342;28;20461;-65
2023/10/24 09:18:38;;;;;;;4.90;2.50;;;;;;;;;;5006456;28;20444;-65
2023/10/24 09:21:06;;;;;;;3.80;2.80;;;;;;;;;;4997429;28;20511;-65
2023/10/24 09:23:35;;;;;;;4.67;2.90;;;;;;;;;;5005021;28;20455;-65
2023/10/24 09:26:03;;;;;;;3.57;2.30;;;;;;;;;;4995938;28;20524;-65
2023/10/24 09:28:33;;;;;;;4.70;2.60;;;;;;;;;;5009447;28;20464;-65
2023/10/24 09:31:00;;;;;;;10.00;4.07;;;;;;;;;;5004970;28;20482;-65
2023/10/24 09:33:28;;;;;;;3.30;2.40;;;;;;;;;;5003927;28;21167;-65
2023/10/24 09:35:55;;;;;;;4.13;3.00;;;;;;;;;;5004664;28;20476;-65
2023/10/24 09:38:24;;;;;;;4.73;2.60;;;;;;;;;;5008543;28;20514;-66
2023/10/24 09:40:51;;;;;;;4.53;3.03;;;;;;;;;;5002862;28;20455;-66
2023/10/24 09:43:20;;;;;;;4.13;2.33;;;;;;;;;;5007614;28;20488;-66
2023/10/24 09:45:50;;;;;;;5.57;2.63;;;;;;;;;;4999010;28;20467;-66
2023/10/24 09:48:18;;;;;;;9.33;3.00;;;;;;;;;;5010845;28;20542;-66
2023/10/24 09:50:45;;;;;;;3.90;2.70;;;;;;;;;;5002853;28;20475;-66
2023/10/24 09:53:13;;;;;;;7.57;2.70;;;;;;;;;;4998163;28;20437;-66
2023/10/24 09:55:48;;;;;;;4.93;2.87;;;;;;;;;;4996562;28;20467;-66
2023/10/24 09:58:16;;;;;;;4.83;2.70;;;;;;;;;;4997277;28;20446;-66
2023/10/24 10:00:44;;;;;;;3.60;2.57;;;;;;;;;;5001806;28;20428;-66
2023/10/24 10:03:12;;;;;;;3.77;2.60;;;;;;;;;;5006539;28;20553;-65
2023/10/24 10:05:40;;;;;;;4.40;3.20;;;;;;;;;;5006153;28;20482;-66
2023/10/24 10:08:08;;;;;;;7.43;3.00;;;;;;;;;;5003226;28;20961;-66
2023/10/24 10:10:37;;;;;;;6.60;3.33;;;;;;;;;;5003385;28;20508;-65
2023/10/24 10:13:06;;;;;;;5.60;3.03;;;;;;;;;;5000368;28;20495;-65
2023/10/24 10:15:38;;;;;;;6.10;2.90;;;;;;;;;;5000287;28;20475;-65
2023/10/24 10:18:11;;;;;;;5.10;3.77;;;;;;;;;;5007087;28;20448;-65
2023/10/24 10:20:44;;;;;;;5.53;2.70;;;;;;;;;;5005525;28;20509;-66
2023/10/24 10:23:19;;;;;;;4.40;2.73;;;;;;;;;;5007476;28;20448;-64
2023/10/24 10:25:56;;;;;;;4.33;3.33;;;;;;;;;;4999907;28;20981;-65
2023/10/24 10:28:39;;;;;;;3.80;2.37;;;;;;;;;;4999375;28;20952;-65
2023/10/24 10:31:14;;;;;;;4.60;2.30;;;;;;;;;;5007051;28;20495;-66
2023/10/24 10:33:41;;;;;;;4.97;2.67;;;;;;;;;;5005479;28;20455;-66
2023/10/24 10:36:11;;;;;;;3.27;2.17;;;;;;;;;;5007531;28;20587;-66
2023/10/24 10:38:41;;;;;;;4.67;2.30;;;;;;;;;;5003299;28;20450;-66
2023/10/24 10:41:28;;;;;;;4.90;2.80;;;;;;;;;;5002026;28;20815;-65
2023/10/24 10:43:57;;;;;;;4.33;2.60;;;;;;;;;;5004443;28;20477;-66
2023/10/24 10:46:25;;;;;;;6.33;3.00;;;;;;;;;;5007516;28;20496;-65
2023/10/24 10:48:52;;;;;;;5.57;2.93;;;;;;;;;;5006598;28;20985;-65
2023/10/24 10:51:22;;;;;;;5.47;3.53;;;;;;;;;;4995377;28;20473;-66
2023/10/24 10:53:52;;;;;;;9.20;3.77;;;;;;;;;;5011642;28;20436;-65
2023/10/24 10:56:21;;;;;;;7.53;2.77;;;;;;;;;;4996256;28;20500;-66
2023/10/24 10:59:08;;;;;;;4.57;2.87;;;;;;;;;;5006705;28;20480;-66
2023/10/24 11:01:40;;;;;;;4.60;3.20;;;;;;;;;;4989881;28;20463;-66
2023/10/24 11:04:13;;;;;;;5.17;3.23;;;;;;;;;;5007462;28;20433;-66
2023/10/24 11:06:51;;;;;;;6.10;3.33;;;;;;;;;;5006127;28;20777;-65
2023/10/24 11:09:20;;;;;;;4.53;2.87;;;;;;;;;;4988708;28;20523;-66
2023/10/24 11:11:47;;;;;;;7.27;3.13;;;;;;;;;;5005360;28;20485;-66
2023/10/24 11:14:15;;;;;;;9.47;3.90;;;;;;;;;;5007731;28;20507;-66
2023/10/24 11:16:42;;;;;;;6.90;2.93;;;;;;;;;;5010955;28;20507;-66
2023/10/24 11:19:11;;;;;;;4.70;3.03;;;;;;;;;;5004953;28;20480;-65
2023/10/24 11:21:38;;;;;;;5.40;3.23;;;;;;;;;;5005569;28;20537;-66
2023/10/24 11:24:09;;;;;;;5.23;3.43;;;;;;;;;;5004093;28;20511;-66
2023/10/24 11:26:36;;;;;;;6.90;3.60;;;;;;;;;;5001916;28;20510;-66
2023/10/24 11:29:03;;;;;;;12.00;2.80;;;;;;;;;;4993991;28;20665;-66
2023/10/24 11:31:30;;;;;;;3.53;2.63;;;;;;;;;;5009658;28;20487;-66
2023/10/24 11:33:57;;;;;;;4.20;2.60;;;;;;;;;;5002295;28;20464;-65
2023/10/24 11:36:26;;;;;;;5.70;4.00;;;;;;;;;;5006030;28;20484;-66
2023/10/24 11:38:55;;;;;;;4.77;2.60;;;;;;;;;;5002356;28;20527;-65
2023/10/24 11:41:23;;;;;;;12.17;2.43;;;;;;;;;;5012876;28;20536;-66
2023/10/24 11:43:51;;;;;;;5.50;3.03;;;;;;;;;;5004475;28;20883;-66
2023/10/24 11:46:18;;;;;;;4.20;2.00;;;;;;;;;;5007594;28;20468;-65
2023/10/24 11:48:45;;;;;;;4.50;1.67;;;;;;;;;;5008970;28;20499;-65
2023/10/24 11:51:12;;;;;;;2.70;1.80;;;;;;;;;;5007259;28;20484;-65
2023/10/24 11:53:39;;;;;;;2.67;1.60;;;;;;;;;;5004824;28;20461;-65
2023/10/24 11:56:08;;;;;;;3.80;1.70;;;;;;;;;;4998943;28;20467;-65
2023/10/24 11:58:36;;;;;;;3.03;1.33;;;;;;;;;;4997968;28;21066;-65
2023/10/24 12:01:04;;;;;;;2.47;1.47;;;;;;;;;;4987749;28;20452;-65
2023/10/24 12:03:41;;;;;;;2.83;1.53;;;;;;;;;;4998951;28;20445;-65
2023/10/24 12:06:08;;;;;;;2.53;1.17;;;;;;;;;;4973012;28;20454;-65
2023/10/24 12:08:36;;;;;;;2.50;1.30;;;;;;;;;;4991978;28;20449;-65
2023/10/24 12:11:03;;;;;;;4.27;1.80;;;;;;;;;;5007476;28;20437;-65
2023/10/24 12:13:31;;;;;;;2.47;1.83;;;;;;;;;;4993526;28;20470;-65
2023/10/24 12:15:59;;;;;;;2.40;1.50;;;;;;;;;;5004576;28;20457;-65
2023/10/24 12:18:26;;;;;;;3.07;1.80;;;;;;;;;;5007765;28;20958;-65
2023/10/24 12:20:54;;;;;;;2.73;1.40;;;;;;;;;;5012721;28;20442;-65
2023/10/24 12:23:23;;;;;;;3.80;1.30;;;;;;;;;;5011404;28;20483;-65
2023/10/24 12:25:50;;;;;;;3.50;1.43;;;;;;;;;;5011195;28;20475;-65
2023/10/24 12:28:17;;;;;;;2.20;1.03;;;;;;;;;;5003029;28;20844;-65
2023/10/24 12:30:44;;;;;;;2.70;1.30;;;;;;;;;;5001992;28;20471;-64
2023/10/24 12:33:12;;;;;;;2.13;1.10;;;;;;;;;;5005405;28;20854;-64
2023/10/24 12:35:39;;;;;;;3.13;1.33;;;;;;;;;;5003002;28;20472;-66
2023/10/24 12:38:07;;;;;;;2.50;1.40;;;;;;;;;;4996291;28;20454;-65
2023/10/24 12:40:34;;;;;;;1.80;0.83;;;;;;;;;;4999816;28;20985;-65
2023/10/24 12:43:01;;;;;;;2.40;1.30;;;;;;;;;;5005098;28;20462;-65
2023/10/24 12:45:28;;;;;;;1.97;0.90;;;;;;;;;;5002128;28;20475;-65
2023/10/24 12:47:57;;;;;;;1.70;0.80;;;;;;;;;;5006134;28;20448;-65
2023/10/24 12:50:26;;;;;;;2.30;1.47;;;;;;;;;;5002510;28;20954;-65
2023/10/24 12:52:54;;;;;;;2.20;1.07;;;;;;;;;;5011250;28;20472;-65
2023/10/24 12:55:21;;;;;;;2.00;0.90;;;;;;;;;;5004876;28;20468;-65
2023/10/24 12:57:48;;;;;;;1.90;0.80;;;;;;;;;;5003174;28;20505;-65
2023/10/24 13:00:16;;;;;;;2.70;1.30;;;;;;;;;;4992291;28;20871;-65
2023/10/24 13:02:43;;;;;;;2.70;1.63;;;;;;;;;;5011095;28;20535;-66
2023/10/24 13:05:10;;;;;;;3.03;1.87;;;;;;;;;;5042758;23;20486;-67
2023/10/24 13:07:38;;;;;;;5.10;1.53;;;;;;;;;;5024921;28;20427;-68
2023/10/24 13:10:06;;;;;;;1.80;0.80;;;;;;;;;;5021999;28;20463;-68
2023/10/24 13:12:33;;;;;;;2.83;1.13;;;;;;;;;;5019197;28;20474;-66
2023/10/24 13:15:00;;;;;;;3.30;1.10;;;;;;;;;;5016539;28;20471;-66
2023/10/24 13:17:27;;;;;;;2.80;1.40;;;;;;;;;;5029842;28;20439;-67
2023/10/24 13:19:54;;;;;;;3.07;1.47;;;;;;;;;;5024087;28;20467;-67
2023/10/24 13:22:21;;;;;;;2.47;1.20;;;;;;;;;;5028579;28;20462;-66
2023/10/24 13:24:50;;;;;;;3.03;1.20;;;;;;;;;;5020018;28;20951;-66
2023/10/24 13:27:17;;;;;;;2.00;1.13;;;;;;;;;;5029048;28;20450;-67
2023/10/24 13:29:44;;;;;;;2.83;1.30;;;;;;;;;;5005759;28;20471;-68
2023/10/24 13:32:11;;;;;;;2.93;1.30;;;;;;;;;;5022310;28;20838;-66
2023/10/24 13:34:38;;;;;;;2.10;1.10;;;;;;;;;;5018925;28;20467;-66
2023/10/24 13:37:05;;;;;;;1.97;1.20;;;;;;;;;;5029257;28;20915;-66
2023/10/24 13:39:32;;;;;;;4.00;1.13;;;;;;;;;;5030953;28;20447;-66
2023/10/24 13:42:00;;;;;;;3.47;1.47;;;;;;;;;;5018858;28;20435;-68
2023/10/24 13:44:27;;;;;;;2.33;1.00;;;;;;;;;;5017821;28;20475;-68
2023/10/24 13:46:56;;;;;;;2.27;1.27;;;;;;;;;;5029878;28;20475;-68
2023/10/24 13:49:23;;;;;;;4.90;1.30;;;;;;;;;;5027852;28;20469;-68
2023/10/24 13:51:49;;;;;;;2.60;1.70;;;;;;;;;;5027947;28;20870;-68
2023/10/24 13:54:16;;;;;;;2.10;1.13;;;;;;;;;;5030728;28;20455;-68
2023/10/24 13:56:43;;;;;;;2.43;1.20;;;;;;;;;;5030238;28;20973;-68
2023/10/24 13:59:12;;;;;;;3.00;1.50;;;;;;;;;;5025037;28;20842;-67
2023/10/24 14:01:39;;;;;;;3.10;1.50;;;;;;;;;;5029993;28;20443;-67
2023/10/24 14:04:06;;;;;;;2.80;1.30;;;;;;;;;;5029799;28;20473;-67
2023/10/24 14:06:33;;;;;;;3.40;1.00;;;;;;;;;;5030609;28;20475;-68
2023/10/24 14:09:00;;;;;;;2.00;0.90;;;;;;;;;;5026905;28;20451;-67
2023/10/24 14:11:27;;;;;;;2.23;1.30;;;;;;;;;;5025691;28;20766;-68
2023/10/24 14:13:55;;;;;;;3.20;1.30;;;;;;;;;;5028899;28;20948;-67
2023/10/24 14:16:23;;;;;;;2.40;1.30;;;;;;;;;;5027154;28;20478;-67
2023/10/24 14:18:50;;;;;;;3.27;1.13;;;;;;;;;;5030274;28;20817;-68
2023/10/24 14:21:17;;;;;;;2.47;1.37;;;;;;;;;;5026664;28;20451;-68
2023/10/24 14:23:45;;;;;;;2.77;1.47;;;;;;;;;;5030817;28;20492;-68
2023/10/24 14:26:12;;;;;;;2.83;1.50;;;;;;;;;;5008714;28;20825;-68
2023/10/24 14:28:39;;;;;;;2.90;1.53;;;;;;;;;;5033208;28;20602;-68
2023/10/24 14:31:06;;;;;;;2.67;1.20;;;;;;;;;;5004420;28;20824;-68
2023/10/24 14:33:35;;;;;;;2.40;1.23;;;;;;;;;;5026398;28;20486;-67
2023/10/24 14:36:02;;;;;;;2.83;1.20;;;;;;;;;;5033442;28;20495;-68
2023/10/24 14:38:29;;;;;;;2.50;1.20;;;;;;;;;;5032608;28;20451;-67
2023/10/24 14:40:57;;;;;;;2.40;1.30;;;;;;;;;;5021108;28;20474;-67
2023/10/24 14:43:24;;;;;;;3.00;1.70;;;;;;;;;;5034066;28;20570;-66
2023/10/24 14:45:51;;;;;;;3.53;1.67;;;;;;;;;;5016277;28;20475;-66
2023/10/24 14:48:18;;;;;;;2.20;1.00;;;;;;;;;;5018443;28;20539;-66
2023/10/24 14:50:46;;;;;;;2.83;1.50;;;;;;;;;;5027691;28;20463;-66
2023/10/24 14:53:15;;;;;;;2.47;1.30;;;;;;;;;;5033437;28;20483;-67
2023/10/24 14:55:42;;;;;;;3.10;1.43;;;;;;;;;;5032853;28;21012;-66